sensor_id;sensor_type;location;lat;lon;timestamp;P1;durP1;ratioP1;P2;durP2;ratioP2
86088;SDS011;76699;52.232;5.176;2024-02-21T00:01:15;5.40;;;1.00;;
86088;SDS011;76699;52.232;5.176;2024-02-21T00:03:41;2.97;;;0.93;;
86088;SDS011;76699;52.232;5.176;2024-02-21T00:06:07;4.35;;;1.13;;
86088;SDS011;76699;52.232;5.176;2024-02-21T00:08:32;5.80;;;1.10;;
86088;SDS011;76699;52.232;5.176;2024-02-21T00:10:57;4.03;;;1.10;;
86088;SDS011;76699;52.232;5.176;2024-02-21T00:13:23;4.40;;;0.90;;
86088;SDS011;76699;52.232;5.176;2024-02-21T00:15:49;3.92;;;1.00;;
86088;SDS011;76699;52.232;5.176;2024-02-21T00:18:14;4.38;;;0.90;;
86088;SDS011;76699;52.232;5.176;2024-02-21T00:20:40;5.83;;;1.00;;
86088;SDS011;76699;52.232;5.176;2024-02-21T00:23:05;3.40;;;0.80;;
86088;SDS011;76699;52.232;5.176;2024-02-21T00:25:30;3.13;;;1.13;;
86088;SDS011;76699;52.232;5.176;2024-02-21T00:27:56;4.30;;;1.00;;
86088;SDS011;76699;52.232;5.176;2024-02-21T00:30:21;4.10;;;1.00;;
86088;SDS011;76699;52.232;5.176;2024-02-21T00:32:46;5.53;;;1.20;;
86088;SDS011;76699;52.232;5.176;2024-02-21T00:35:12;6.32;;;1.30;;
86088;SDS011;76699;52.232;5.176;2024-02-21T00:37:38;3.72;;;1.13;;
86088;SDS011;76699;52.232;5.176;2024-02-21T00:40:04;3.60;;;0.87;;
86088;SDS011;76699;52.232;5.176;2024-02-21T00:42:30;4.43;;;1.20;;
86088;SDS011;76699;52.232;5.176;2024-02-21T00:44:55;3.57;;;1.00;;
86088;SDS011;76699;52.232;5.176;2024-02-21T00:47:21;4.47;;;0.90;;
86088;SDS011;76699;52.232;5.176;2024-02-21T00:49:46;5.03;;;1.20;;
86088;SDS011;76699;52.232;5.176;2024-02-21T00:52:11;4.50;;;1.03;;
86088;SDS011;76699;52.232;5.176;2024-02-21T00:54:37;3.70;;;1.00;;
86088;SDS011;76699;52.232;5.176;2024-02-21T00:57:02;2.80;;;0.80;;
86088;SDS011;76699;52.232;5.176;2024-02-21T00:59:27;3.75;;;1.13;;
86088;SDS011;76699;52.232;5.176;2024-02-21T01:01:53;12.33;;;1.27;;
86088;SDS011;76699;52.232;5.176;2024-02-21T01:04:18;3.83;;;1.00;;
86088;SDS011;76699;52.232;5.176;2024-02-21T01:06:43;3.50;;;1.02;;
86088;SDS011;76699;52.232;5.176;2024-02-21T01:09:09;6.05;;;1.13;;
86088;SDS011;76699;52.232;5.176;2024-02-21T01:11:35;5.13;;;1.10;;
86088;SDS011;76699;52.232;5.176;2024-02-21T01:14:01;4.13;;;1.00;;
86088;SDS011;76699;52.232;5.176;2024-02-21T01:16:27;3.97;;;0.98;;
86088;SDS011;76699;52.232;5.176;2024-02-21T01:18:52;3.20;;;1.03;;
86088;SDS011;76699;52.232;5.176;2024-02-21T01:21:17;4.10;;;1.10;;
86088;SDS011;76699;52.232;5.176;2024-02-21T01:23:42;3.97;;;0.97;;
86088;SDS011;76699;52.232;5.176;2024-02-21T01:26:08;2.87;;;0.93;;
86088;SDS011;76699;52.232;5.176;2024-02-21T01:28:34;3.42;;;0.80;;
86088;SDS011;76699;52.232;5.176;2024-02-21T01:31:00;4.68;;;1.08;;
86088;SDS011;76699;52.232;5.176;2024-02-21T01:33:25;4.35;;;1.00;;
86088;SDS011;76699;52.232;5.176;2024-02-21T01:35:51;3.45;;;0.98;;
86088;SDS011;76699;52.232;5.176;2024-02-21T01:38:16;4.30;;;1.10;;
86088;SDS011;76699;52.232;5.176;2024-02-21T01:40:42;3.60;;;0.90;;
86088;SDS011;76699;52.232;5.176;2024-02-21T01:43:17;4.03;;;0.90;;
86088;SDS011;76699;52.232;5.176;2024-02-21T01:45:45;4.30;;;1.25;;
86088;SDS011;76699;52.232;5.176;2024-02-21T01:48:13;5.00;;;0.80;;
86088;SDS011;76699;52.232;5.176;2024-02-21T01:50:39;3.07;;;1.13;;
86088;SDS011;76699;52.232;5.176;2024-02-21T01:53:04;3.33;;;0.80;;
86088;SDS011;76699;52.232;5.176;2024-02-21T01:55:30;4.78;;;1.20;;
86088;SDS011;76699;52.232;5.176;2024-02-21T01:57:56;4.45;;;1.15;;
86088;SDS011;76699;52.232;5.176;2024-02-21T02:00:21;4.15;;;0.85;;
86088;SDS011;76699;52.232;5.176;2024-02-21T02:02:48;3.80;;;0.88;;
86088;SDS011;76699;52.232;5.176;2024-02-21T02:05:14;3.90;;;0.80;;
86088;SDS011;76699;52.232;5.176;2024-02-21T02:07:42;2.72;;;0.88;;
86088;SDS011;76699;52.232;5.176;2024-02-21T02:10:07;4.23;;;0.80;;
86088;SDS011;76699;52.232;5.176;2024-02-21T02:12:33;5.13;;;0.90;;
86088;SDS011;76699;52.232;5.176;2024-02-21T02:15:02;2.67;;;0.80;;
86088;SDS011;76699;52.232;5.176;2024-02-21T02:17:31;6.40;;;1.00;;
86088;SDS011;76699;52.232;5.176;2024-02-21T02:19:58;3.42;;;0.80;;
86088;SDS011;76699;52.232;5.176;2024-02-21T02:22:25;3.47;;;1.10;;
86088;SDS011;76699;52.232;5.176;2024-02-21T02:24:54;3.78;;;0.98;;
86088;SDS011;76699;52.232;5.176;2024-02-21T02:27:20;4.10;;;0.90;;
86088;SDS011;76699;52.232;5.176;2024-02-21T02:29:45;4.23;;;1.00;;
86088;SDS011;76699;52.232;5.176;2024-02-21T02:32:10;7.20;;;1.17;;
86088;SDS011;76699;52.232;5.176;2024-02-21T02:34:36;3.72;;;1.02;;
86088;SDS011;76699;52.232;5.176;2024-02-21T02:37:01;4.53;;;0.80;;
86088;SDS011;76699;52.232;5.176;2024-02-21T02:39:27;3.50;;;0.80;;
86088;SDS011;76699;52.232;5.176;2024-02-21T02:41:52;3.45;;;0.90;;
86088;SDS011;76699;52.232;5.176;2024-02-21T02:44:17;5.90;;;0.90;;
86088;SDS011;76699;52.232;5.176;2024-02-21T02:46:43;4.20;;;0.80;;
86088;SDS011;76699;52.232;5.176;2024-02-21T02:49:08;2.63;;;0.70;;
86088;SDS011;76699;52.232;5.176;2024-02-21T02:51:34;4.22;;;0.82;;
86088;SDS011;76699;52.232;5.176;2024-02-21T02:53:59;3.47;;;0.70;;
86088;SDS011;76699;52.232;5.176;2024-02-21T02:56:24;3.22;;;0.65;;
86088;SDS011;76699;52.232;5.176;2024-02-21T02:58:50;4.23;;;0.90;;
86088;SDS011;76699;52.232;5.176;2024-02-21T03:01:15;3.53;;;0.77;;
86088;SDS011;76699;52.232;5.176;2024-02-21T03:03:40;3.78;;;0.60;;
86088;SDS011;76699;52.232;5.176;2024-02-21T03:06:06;4.50;;;0.80;;
86088;SDS011;76699;52.232;5.176;2024-02-21T03:08:31;3.50;;;0.90;;
86088;SDS011;76699;52.232;5.176;2024-02-21T03:10:57;5.35;;;0.93;;
86088;SDS011;76699;52.232;5.176;2024-02-21T03:13:24;6.97;;;0.80;;
86088;SDS011;76699;52.232;5.176;2024-02-21T03:15:50;4.18;;;0.70;;
86088;SDS011;76699;52.232;5.176;2024-02-21T03:18:15;4.93;;;1.00;;
86088;SDS011;76699;52.232;5.176;2024-02-21T03:20:40;4.30;;;0.90;;
86088;SDS011;76699;52.232;5.176;2024-02-21T03:23:05;3.63;;;0.57;;
86088;SDS011;76699;52.232;5.176;2024-02-21T03:25:31;4.90;;;1.00;;
86088;SDS011;76699;52.232;5.176;2024-02-21T03:27:56;4.63;;;0.80;;
86088;SDS011;76699;52.232;5.176;2024-02-21T03:30:22;3.40;;;0.82;;
86088;SDS011;76699;52.232;5.176;2024-02-21T03:32:47;4.13;;;0.70;;
86088;SDS011;76699;52.232;5.176;2024-02-21T03:35:12;2.17;;;0.67;;
86088;SDS011;76699;52.232;5.176;2024-02-21T03:37:38;3.23;;;0.77;;
86088;SDS011;76699;52.232;5.176;2024-02-21T03:40:06;3.65;;;0.80;;
86088;SDS011;76699;52.232;5.176;2024-02-21T03:42:32;5.00;;;0.70;;
86088;SDS011;76699;52.232;5.176;2024-02-21T03:44:58;3.50;;;0.70;;
86088;SDS011;76699;52.232;5.176;2024-02-21T03:47:23;3.83;;;0.97;;
86088;SDS011;76699;52.232;5.176;2024-02-21T03:49:49;3.83;;;0.60;;
86088;SDS011;76699;52.232;5.176;2024-02-21T03:52:14;4.80;;;0.88;;
86088;SDS011;76699;52.232;5.176;2024-02-21T03:54:40;3.87;;;0.80;;
86088;SDS011;76699;52.232;5.176;2024-02-21T03:57:05;4.97;;;0.90;;
86088;SDS011;76699;52.232;5.176;2024-02-21T03:59:31;5.65;;;0.93;;
86088;SDS011;76699;52.232;5.176;2024-02-21T04:01:56;3.17;;;1.20;;
86088;SDS011;76699;52.232;5.176;2024-02-21T04:04:22;3.87;;;0.70;;
86088;SDS011;76699;52.232;5.176;2024-02-21T04:06:47;4.17;;;0.90;;
86088;SDS011;76699;52.232;5.176;2024-02-21T04:09:13;3.33;;;0.88;;
86088;SDS011;76699;52.232;5.176;2024-02-21T04:11:38;3.23;;;0.90;;
86088;SDS011;76699;52.232;5.176;2024-02-21T04:14:04;3.20;;;0.80;;
86088;SDS011;76699;52.232;5.176;2024-02-21T04:16:29;4.57;;;0.70;;
86088;SDS011;76699;52.232;5.176;2024-02-21T04:18:54;4.28;;;0.80;;
86088;SDS011;76699;52.232;5.176;2024-02-21T04:21:20;4.60;;;0.73;;
86088;SDS011;76699;52.232;5.176;2024-02-21T04:23:45;4.33;;;0.93;;
86088;SDS011;76699;52.232;5.176;2024-02-21T04:26:10;3.03;;;0.67;;
86088;SDS011;76699;52.232;5.176;2024-02-21T04:28:35;3.80;;;1.00;;
86088;SDS011;76699;52.232;5.176;2024-02-21T04:31:01;3.92;;;0.90;;
86088;SDS011;76699;52.232;5.176;2024-02-21T04:33:26;3.93;;;0.83;;
86088;SDS011;76699;52.232;5.176;2024-02-21T04:35:52;4.20;;;0.80;;
86088;SDS011;76699;52.232;5.176;2024-02-21T04:38:19;3.20;;;0.90;;
86088;SDS011;76699;52.232;5.176;2024-02-21T04:40:45;3.25;;;0.77;;
86088;SDS011;76699;52.232;5.176;2024-02-21T04:43:10;3.80;;;0.80;;
86088;SDS011;76699;52.232;5.176;2024-02-21T04:45:35;3.33;;;0.70;;
86088;SDS011;76699;52.232;5.176;2024-02-21T04:48:01;3.57;;;0.83;;
86088;SDS011;76699;52.232;5.176;2024-02-21T04:50:26;3.13;;;0.53;;
86088;SDS011;76699;52.232;5.176;2024-02-21T04:52:52;3.85;;;1.00;;
86088;SDS011;76699;52.232;5.176;2024-02-21T04:55:17;2.93;;;0.70;;
86088;SDS011;76699;52.232;5.176;2024-02-21T04:57:43;2.30;;;0.60;;
86088;SDS011;76699;52.232;5.176;2024-02-21T05:00:08;3.10;;;0.90;;
86088;SDS011;76699;52.232;5.176;2024-02-21T05:02:34;2.97;;;0.68;;
86088;SDS011;76699;52.232;5.176;2024-02-21T05:04:59;2.72;;;0.75;;
86088;SDS011;76699;52.232;5.176;2024-02-21T05:07:25;2.53;;;0.80;;
86088;SDS011;76699;52.232;5.176;2024-02-21T05:09:50;3.20;;;1.00;;
86088;SDS011;76699;52.232;5.176;2024-02-21T05:12:16;4.78;;;0.90;;
86088;SDS011;76699;52.232;5.176;2024-02-21T05:14:41;3.70;;;0.77;;
86088;SDS011;76699;52.232;5.176;2024-02-21T05:17:06;2.37;;;0.67;;
86088;SDS011;76699;52.232;5.176;2024-02-21T05:19:32;3.00;;;0.80;;
86088;SDS011;76699;52.232;5.176;2024-02-21T05:21:58;3.60;;;0.97;;
86088;SDS011;76699;52.232;5.176;2024-02-21T05:24:24;3.33;;;0.95;;
86088;SDS011;76699;52.232;5.176;2024-02-21T05:26:50;3.13;;;1.05;;
86088;SDS011;76699;52.232;5.176;2024-02-21T05:29:16;3.30;;;0.83;;
86088;SDS011;76699;52.232;5.176;2024-02-21T05:34:16;3.05;;;0.90;;
86088;SDS011;76699;52.232;5.176;2024-02-21T05:36:41;2.45;;;0.93;;
86088;SDS011;76699;52.232;5.176;2024-02-21T05:39:07;2.35;;;0.80;;
86088;SDS011;76699;52.232;5.176;2024-02-21T05:41:32;2.53;;;0.90;;
86088;SDS011;76699;52.232;5.176;2024-02-21T05:43:57;3.67;;;0.90;;
86088;SDS011;76699;52.232;5.176;2024-02-21T05:46:23;3.07;;;0.83;;
86088;SDS011;76699;52.232;5.176;2024-02-21T05:48:48;3.43;;;0.90;;
86088;SDS011;76699;52.232;5.176;2024-02-21T05:51:13;3.77;;;0.80;;
86088;SDS011;76699;52.232;5.176;2024-02-21T05:53:39;2.97;;;1.00;;
86088;SDS011;76699;52.232;5.176;2024-02-21T05:56:09;4.07;;;0.98;;
86088;SDS011;76699;52.232;5.176;2024-02-21T05:58:35;4.82;;;0.90;;
86088;SDS011;76699;52.232;5.176;2024-02-21T06:01:01;4.13;;;1.07;;
86088;SDS011;76699;52.232;5.176;2024-02-21T06:03:28;3.10;;;0.80;;
86088;SDS011;76699;52.232;5.176;2024-02-21T06:05:54;3.42;;;1.20;;
86088;SDS011;76699;52.232;5.176;2024-02-21T06:08:19;3.53;;;1.23;;
86088;SDS011;76699;52.232;5.176;2024-02-21T06:10:45;3.75;;;1.10;;
86088;SDS011;76699;52.232;5.176;2024-02-21T06:13:10;2.38;;;0.80;;
86088;SDS011;76699;52.232;5.176;2024-02-21T06:15:36;2.40;;;1.10;;
86088;SDS011;76699;52.232;5.176;2024-02-21T06:18:01;2.85;;;1.23;;
86088;SDS011;76699;52.232;5.176;2024-02-21T06:20:26;1.70;;;0.70;;
86088;SDS011;76699;52.232;5.176;2024-02-21T06:22:53;1.80;;;0.73;;
86088;SDS011;76699;52.232;5.176;2024-02-21T06:25:19;2.90;;;0.98;;
86088;SDS011;76699;52.232;5.176;2024-02-21T06:27:44;2.07;;;0.80;;
86088;SDS011;76699;52.232;5.176;2024-02-21T06:30:09;2.40;;;1.07;;
86088;SDS011;76699;52.232;5.176;2024-02-21T06:32:35;2.97;;;0.75;;
86088;SDS011;76699;52.232;5.176;2024-02-21T06:35:00;2.85;;;1.00;;
86088;SDS011;76699;52.232;5.176;2024-02-21T06:37:27;2.10;;;0.80;;
86088;SDS011;76699;52.232;5.176;2024-02-21T06:39:52;4.10;;;0.88;;
86088;SDS011;76699;52.232;5.176;2024-02-21T06:42:17;2.97;;;0.97;;
86088;SDS011;76699;52.232;5.176;2024-02-21T06:44:44;2.30;;;1.00;;
86088;SDS011;76699;52.232;5.176;2024-02-21T06:47:09;2.70;;;0.90;;
86088;SDS011;76699;52.232;5.176;2024-02-21T06:49:36;1.90;;;0.80;;
86088;SDS011;76699;52.232;5.176;2024-02-21T06:52:04;2.30;;;0.93;;
86088;SDS011;76699;52.232;5.176;2024-02-21T06:54:30;2.47;;;1.00;;
86088;SDS011;76699;52.232;5.176;2024-02-21T06:56:55;3.65;;;1.10;;
86088;SDS011;76699;52.232;5.176;2024-02-21T06:59:21;2.10;;;1.07;;
86088;SDS011;76699;52.232;5.176;2024-02-21T07:01:49;3.27;;;1.10;;
86088;SDS011;76699;52.232;5.176;2024-02-21T07:04:18;2.08;;;0.82;;
86088;SDS011;76699;52.232;5.176;2024-02-21T07:06:45;3.27;;;1.00;;
86088;SDS011;76699;52.232;5.176;2024-02-21T07:09:10;2.80;;;1.02;;
86088;SDS011;76699;52.232;5.176;2024-02-21T07:11:37;2.23;;;1.00;;
86088;SDS011;76699;52.232;5.176;2024-02-21T07:14:02;3.13;;;1.17;;
86088;SDS011;76699;52.232;5.176;2024-02-21T07:16:29;2.97;;;1.07;;
86088;SDS011;76699;52.232;5.176;2024-02-21T07:18:55;3.58;;;1.20;;
86088;SDS011;76699;52.232;5.176;2024-02-21T07:21:20;1.73;;;0.80;;
86088;SDS011;76699;52.232;5.176;2024-02-21T07:23:45;3.83;;;1.23;;
86088;SDS011;76699;52.232;5.176;2024-02-21T07:26:11;1.87;;;0.83;;
86088;SDS011;76699;52.232;5.176;2024-02-21T07:28:36;3.47;;;1.47;;
86088;SDS011;76699;52.232;5.176;2024-02-21T07:31:01;4.75;;;1.00;;
86088;SDS011;76699;52.232;5.176;2024-02-21T07:33:27;2.78;;;1.20;;
86088;SDS011;76699;52.232;5.176;2024-02-21T07:35:52;4.27;;;1.20;;
86088;SDS011;76699;52.232;5.176;2024-02-21T07:38:18;3.17;;;1.30;;
86088;SDS011;76699;52.232;5.176;2024-02-21T07:40:46;2.67;;;1.17;;
86088;SDS011;76699;52.232;5.176;2024-02-21T07:43:11;3.22;;;1.35;;
86088;SDS011;76699;52.232;5.176;2024-02-21T07:45:37;3.97;;;1.20;;
86088;SDS011;76699;52.232;5.176;2024-02-21T07:48:04;4.05;;;1.30;;
86088;SDS011;76699;52.232;5.176;2024-02-21T07:50:33;2.13;;;1.08;;
86088;SDS011;76699;52.232;5.176;2024-02-21T07:52:58;3.15;;;1.38;;
86088;SDS011;76699;52.232;5.176;2024-02-21T07:55:23;2.70;;;1.20;;
86088;SDS011;76699;52.232;5.176;2024-02-21T07:57:49;2.65;;;1.17;;
86088;SDS011;76699;52.232;5.176;2024-02-21T08:00:15;2.83;;;1.08;;
86088;SDS011;76699;52.232;5.176;2024-02-21T08:02:45;3.33;;;1.23;;
86088;SDS011;76699;52.232;5.176;2024-02-21T08:05:11;3.35;;;1.20;;
86088;SDS011;76699;52.232;5.176;2024-02-21T08:07:37;2.95;;;1.13;;
86088;SDS011;76699;52.232;5.176;2024-02-21T08:10:04;3.90;;;1.50;;
86088;SDS011;76699;52.232;5.176;2024-02-21T08:12:32;3.13;;;1.40;;
86088;SDS011;76699;52.232;5.176;2024-02-21T08:14:57;3.38;;;1.52;;
86088;SDS011;76699;52.232;5.176;2024-02-21T08:17:23;3.23;;;1.30;;
86088;SDS011;76699;52.232;5.176;2024-02-21T08:19:48;4.23;;;1.47;;
86088;SDS011;76699;52.232;5.176;2024-02-21T08:22:14;4.57;;;1.70;;
86088;SDS011;76699;52.232;5.176;2024-02-21T08:24:39;4.93;;;1.50;;
86088;SDS011;76699;52.232;5.176;2024-02-21T08:27:05;2.50;;;1.52;;
86088;SDS011;76699;52.232;5.176;2024-02-21T08:29:31;3.72;;;1.70;;
86088;SDS011;76699;52.232;5.176;2024-02-21T08:31:56;4.93;;;1.65;;
86088;SDS011;76699;52.232;5.176;2024-02-21T08:34:21;2.53;;;1.40;;
86088;SDS011;76699;52.232;5.176;2024-02-21T08:36:47;5.33;;;1.40;;
86088;SDS011;76699;52.232;5.176;2024-02-21T08:39:12;3.97;;;1.45;;
86088;SDS011;76699;52.232;5.176;2024-02-21T08:44:06;3.03;;;1.47;;
86088;SDS011;76699;52.232;5.176;2024-02-21T08:46:32;3.05;;;1.65;;
86088;SDS011;76699;52.232;5.176;2024-02-21T08:48:57;3.80;;;1.70;;
86088;SDS011;76699;52.232;5.176;2024-02-21T08:51:23;2.73;;;1.43;;
86088;SDS011;76699;52.232;5.176;2024-02-21T08:53:48;3.97;;;1.50;;
86088;SDS011;76699;52.232;5.176;2024-02-21T08:56:14;3.78;;;1.60;;
86088;SDS011;76699;52.232;5.176;2024-02-21T08:58:40;4.68;;;1.80;;
86088;SDS011;76699;52.232;5.176;2024-02-21T09:01:06;3.90;;;1.80;;
86088;SDS011;76699;52.232;5.176;2024-02-21T09:03:35;3.97;;;1.67;;
86088;SDS011;76699;52.232;5.176;2024-02-21T09:06:01;4.53;;;1.83;;
86088;SDS011;76699;52.232;5.176;2024-02-21T09:08:26;3.93;;;1.60;;
86088;SDS011;76699;52.232;5.176;2024-02-21T09:10:52;3.30;;;1.80;;
86088;SDS011;76699;52.232;5.176;2024-02-21T09:13:18;3.35;;;1.80;;
86088;SDS011;76699;52.232;5.176;2024-02-21T09:15:43;4.50;;;1.92;;
86088;SDS011;76699;52.232;5.176;2024-02-21T09:18:09;4.23;;;1.80;;
86088;SDS011;76699;52.232;5.176;2024-02-21T09:20:34;4.68;;;1.80;;
86088;SDS011;76699;52.232;5.176;2024-02-21T09:22:59;5.67;;;1.87;;
86088;SDS011;76699;52.232;5.176;2024-02-21T09:25:25;3.53;;;1.70;;
86088;SDS011;76699;52.232;5.176;2024-02-21T09:27:50;4.45;;;1.80;;
86088;SDS011;76699;52.232;5.176;2024-02-21T09:30:17;3.95;;;1.65;;
86088;SDS011;76699;52.232;5.176;2024-02-21T09:32:42;3.90;;;1.85;;
86088;SDS011;76699;52.232;5.176;2024-02-21T09:35:08;3.17;;;1.87;;
86088;SDS011;76699;52.232;5.176;2024-02-21T09:37:35;3.35;;;1.90;;
86088;SDS011;76699;52.232;5.176;2024-02-21T09:40:00;3.40;;;1.85;;
86088;SDS011;76699;52.232;5.176;2024-02-21T09:42:30;3.50;;;1.70;;
86088;SDS011;76699;52.232;5.176;2024-02-21T09:45:19;5.03;;;1.80;;
86088;SDS011;76699;52.232;5.176;2024-02-21T09:50:40;4.40;;;2.17;;
86088;SDS011;76699;52.232;5.176;2024-02-21T09:53:08;5.55;;;2.13;;
86088;SDS011;76699;52.232;5.176;2024-02-21T09:55:36;5.10;;;1.85;;
86088;SDS011;76699;52.232;5.176;2024-02-21T09:58:05;5.13;;;2.05;;
86088;SDS011;76699;52.232;5.176;2024-02-21T10:00:30;4.18;;;1.88;;
86088;SDS011;76699;52.232;5.176;2024-02-21T10:02:56;3.80;;;1.90;;
86088;SDS011;76699;52.232;5.176;2024-02-21T10:05:21;4.13;;;1.90;;
86088;SDS011;76699;52.232;5.176;2024-02-21T10:07:47;5.50;;;2.45;;
86088;SDS011;76699;52.232;5.176;2024-02-21T10:10:14;4.38;;;1.88;;
86088;SDS011;76699;52.232;5.176;2024-02-21T10:12:48;4.63;;;2.00;;
86088;SDS011;76699;52.232;5.176;2024-02-21T10:15:19;4.95;;;1.90;;
86088;SDS011;76699;52.232;5.176;2024-02-21T10:17:45;3.83;;;1.98;;
86088;SDS011;76699;52.232;5.176;2024-02-21T10:20:11;5.07;;;2.13;;
86088;SDS011;76699;52.232;5.176;2024-02-21T10:22:37;2.42;;;1.50;;
86088;SDS011;76699;52.232;5.176;2024-02-21T10:25:11;4.03;;;1.88;;
86088;SDS011;76699;52.232;5.176;2024-02-21T10:27:38;4.10;;;2.08;;
86088;SDS011;76699;52.232;5.176;2024-02-21T10:30:04;3.60;;;2.08;;
86088;SDS011;76699;52.232;5.176;2024-02-21T10:32:37;3.60;;;1.67;;
86088;SDS011;76699;52.232;5.176;2024-02-21T10:35:14;4.30;;;1.88;;
86088;SDS011;76699;52.232;5.176;2024-02-21T10:37:39;4.27;;;2.00;;
86088;SDS011;76699;52.232;5.176;2024-02-21T10:40:05;3.53;;;1.50;;
86088;SDS011;76699;52.232;5.176;2024-02-21T10:42:31;3.90;;;1.60;;
86088;SDS011;76699;52.232;5.176;2024-02-21T10:45:00;3.75;;;2.00;;
86088;SDS011;76699;52.232;5.176;2024-02-21T10:47:29;3.38;;;1.63;;
86088;SDS011;76699;52.232;5.176;2024-02-21T10:49:57;3.42;;;1.88;;
86088;SDS011;76699;52.232;5.176;2024-02-21T10:55:03;3.03;;;1.80;;
86088;SDS011;76699;52.232;5.176;2024-02-21T10:57:31;4.32;;;1.73;;
86088;SDS011;76699;52.232;5.176;2024-02-21T10:59:58;4.15;;;1.75;;
86088;SDS011;76699;52.232;5.176;2024-02-21T11:02:24;3.45;;;2.03;;
86088;SDS011;76699;52.232;5.176;2024-02-21T11:04:51;3.70;;;1.60;;
86088;SDS011;76699;52.232;5.176;2024-02-21T11:07:18;2.88;;;1.75;;
86088;SDS011;76699;52.232;5.176;2024-02-21T11:09:50;3.45;;;1.90;;
86088;SDS011;76699;52.232;5.176;2024-02-21T11:12:22;4.07;;;2.03;;
86088;SDS011;76699;52.232;5.176;2024-02-21T11:14:48;4.68;;;1.80;;
86088;SDS011;76699;52.232;5.176;2024-02-21T11:17:19;2.80;;;1.47;;
86088;SDS011;76699;52.232;5.176;2024-02-21T11:19:51;3.92;;;1.45;;
86088;SDS011;76699;52.232;5.176;2024-02-21T11:22:17;2.90;;;1.40;;
86088;SDS011;76699;52.232;5.176;2024-02-21T11:24:44;2.97;;;1.60;;
86088;SDS011;76699;52.232;5.176;2024-02-21T11:27:20;3.25;;;1.50;;
86088;SDS011;76699;52.232;5.176;2024-02-21T11:29:47;3.00;;;1.50;;
86088;SDS011;76699;52.232;5.176;2024-02-21T11:32:16;2.38;;;1.45;;
86088;SDS011;76699;52.232;5.176;2024-02-21T11:35:02;2.50;;;1.33;;
86088;SDS011;76699;52.232;5.176;2024-02-21T11:37:30;3.50;;;1.63;;
86088;SDS011;76699;52.232;5.176;2024-02-21T11:39:58;2.58;;;1.38;;
86088;SDS011;76699;52.232;5.176;2024-02-21T11:42:27;2.15;;;1.40;;
86088;SDS011;76699;52.232;5.176;2024-02-21T11:44:54;5.75;;;1.52;;
86088;SDS011;76699;52.232;5.176;2024-02-21T11:47:22;3.33;;;1.60;;
86088;SDS011;76699;52.232;5.176;2024-02-21T11:49:47;2.28;;;1.55;;
86088;SDS011;76699;52.232;5.176;2024-02-21T11:52:15;3.08;;;1.60;;
86088;SDS011;76699;52.232;5.176;2024-02-21T11:54:41;2.25;;;1.25;;
86088;SDS011;76699;52.232;5.176;2024-02-21T11:57:07;2.92;;;1.50;;
86088;SDS011;76699;52.232;5.176;2024-02-21T11:59:36;2.55;;;1.33;;
86088;SDS011;76699;52.232;5.176;2024-02-21T12:02:01;2.42;;;1.30;;
86088;SDS011;76699;52.232;5.176;2024-02-21T12:04:28;3.17;;;1.45;;
86088;SDS011;76699;52.232;5.176;2024-02-21T12:06:59;2.45;;;1.40;;
86088;SDS011;76699;52.232;5.176;2024-02-21T12:09:26;2.58;;;1.40;;
86088;SDS011;76699;52.232;5.176;2024-02-21T12:12:02;2.92;;;1.25;;
86088;SDS011;76699;52.232;5.176;2024-02-21T12:14:29;2.25;;;1.40;;
86088;SDS011;76699;52.232;5.176;2024-02-21T12:16:55;2.40;;;1.33;;
86088;SDS011;76699;52.232;5.176;2024-02-21T12:19:22;2.25;;;1.25;;
86088;SDS011;76699;52.232;5.176;2024-02-21T12:21:50;1.98;;;1.23;;
86088;SDS011;76699;52.232;5.176;2024-02-21T12:24:17;3.42;;;1.27;;
86088;SDS011;76699;52.232;5.176;2024-02-21T12:26:46;2.75;;;1.48;;
86088;SDS011;76699;52.232;5.176;2024-02-21T12:29:11;2.53;;;1.40;;
86088;SDS011;76699;52.232;5.176;2024-02-21T12:31:37;2.73;;;1.80;;
86088;SDS011;76699;52.232;5.176;2024-02-21T12:34:03;4.03;;;1.70;;
86088;SDS011;76699;52.232;5.176;2024-02-21T12:36:29;5.78;;;1.90;;
86088;SDS011;76699;52.232;5.176;2024-02-21T12:38:55;2.38;;;1.45;;
86088;SDS011;76699;52.232;5.176;2024-02-21T12:41:20;4.27;;;2.23;;
86088;SDS011;76699;52.232;5.176;2024-02-21T12:43:46;3.60;;;1.90;;
86088;SDS011;76699;52.232;5.176;2024-02-21T12:46:12;5.50;;;1.45;;
86088;SDS011;76699;52.232;5.176;2024-02-21T12:48:37;3.70;;;1.83;;
86088;SDS011;76699;52.232;5.176;2024-02-21T12:51:02;12.07;;;2.20;;
86088;SDS011;76699;52.232;5.176;2024-02-21T12:53:29;9.30;;;1.98;;
86088;SDS011;76699;52.232;5.176;2024-02-21T12:55:55;3.92;;;1.55;;
86088;SDS011;76699;52.232;5.176;2024-02-21T12:58:21;4.55;;;1.80;;
86088;SDS011;76699;52.232;5.176;2024-02-21T13:00:46;3.87;;;1.70;;
86088;SDS011;76699;52.232;5.176;2024-02-21T13:03:12;4.87;;;1.27;;
86088;SDS011;76699;52.232;5.176;2024-02-21T13:05:37;5.97;;;1.80;;
86088;SDS011;76699;52.232;5.176;2024-02-21T13:08:04;10.20;;;1.60;;
86088;SDS011;76699;52.232;5.176;2024-02-21T13:10:32;6.68;;;2.00;;
86088;SDS011;76699;52.232;5.176;2024-02-21T13:12:59;6.88;;;1.50;;
86088;SDS011;76699;52.232;5.176;2024-02-21T13:15:25;5.65;;;1.75;;
86088;SDS011;76699;52.232;5.176;2024-02-21T13:17:50;4.30;;;1.30;;
86088;SDS011;76699;52.232;5.176;2024-02-21T13:20:15;7.23;;;1.43;;
86088;SDS011;76699;52.232;5.176;2024-02-21T13:22:41;5.07;;;1.57;;
86088;SDS011;76699;52.232;5.176;2024-02-21T13:25:06;5.63;;;1.60;;
86088;SDS011;76699;52.232;5.176;2024-02-21T13:30:00;7.40;;;1.60;;
86088;SDS011;76699;52.232;5.176;2024-02-21T13:32:30;5.53;;;1.42;;
86088;SDS011;76699;52.232;5.176;2024-02-21T13:34:56;4.63;;;1.60;;
86088;SDS011;76699;52.232;5.176;2024-02-21T13:37:21;3.38;;;1.55;;
86088;SDS011;76699;52.232;5.176;2024-02-21T13:39:46;7.63;;;1.60;;
86088;SDS011;76699;52.232;5.176;2024-02-21T13:42:12;3.50;;;1.50;;
86088;SDS011;76699;52.232;5.176;2024-02-21T13:44:38;3.78;;;1.35;;
86088;SDS011;76699;52.232;5.176;2024-02-21T13:47:03;4.57;;;1.20;;
86088;SDS011;76699;52.232;5.176;2024-02-21T13:49:29;5.88;;;1.38;;
86088;SDS011;76699;52.232;5.176;2024-02-21T13:51:55;3.17;;;1.33;;
86088;SDS011;76699;52.232;5.176;2024-02-21T13:54:21;2.92;;;1.30;;
86088;SDS011;76699;52.232;5.176;2024-02-21T13:56:46;2.97;;;1.40;;
86088;SDS011;76699;52.232;5.176;2024-02-21T13:59:12;5.03;;;1.10;;
86088;SDS011;76699;52.232;5.176;2024-02-21T14:01:39;2.80;;;1.15;;
86088;SDS011;76699;52.232;5.176;2024-02-21T14:04:04;5.45;;;0.95;;
86088;SDS011;76699;52.232;5.176;2024-02-21T14:06:29;3.90;;;1.37;;
86088;SDS011;76699;52.232;5.176;2024-02-21T14:08:55;4.27;;;1.40;;
86088;SDS011;76699;52.232;5.176;2024-02-21T14:11:20;2.60;;;1.20;;
86088;SDS011;76699;52.232;5.176;2024-02-21T14:13:45;6.37;;;1.30;;
86088;SDS011;76699;52.232;5.176;2024-02-21T14:16:11;3.17;;;1.40;;
86088;SDS011;76699;52.232;5.176;2024-02-21T14:18:39;3.03;;;1.10;;
86088;SDS011;76699;52.232;5.176;2024-02-21T14:23:35;4.25;;;1.10;;
86088;SDS011;76699;52.232;5.176;2024-02-21T14:26:04;3.05;;;1.30;;
86088;SDS011;76699;52.232;5.176;2024-02-21T14:28:30;2.30;;;1.17;;
86088;SDS011;76699;52.232;5.176;2024-02-21T14:30:55;2.67;;;0.90;;
86088;SDS011;76699;52.232;5.176;2024-02-21T14:33:23;2.10;;;0.90;;
86088;SDS011;76699;52.232;5.176;2024-02-21T14:35:49;3.15;;;1.13;;
86088;SDS011;76699;52.232;5.176;2024-02-21T14:38:14;3.20;;;1.30;;
86088;SDS011;76699;52.232;5.176;2024-02-21T14:40:40;4.10;;;0.93;;
86088;SDS011;76699;52.232;5.176;2024-02-21T14:43:05;2.73;;;1.10;;
86088;SDS011;76699;52.232;5.176;2024-02-21T14:45:30;4.10;;;1.10;;
86088;SDS011;76699;52.232;5.176;2024-02-21T14:47:56;2.95;;;1.00;;
86088;SDS011;76699;52.232;5.176;2024-02-21T14:50:21;3.15;;;1.52;;
86088;SDS011;76699;52.232;5.176;2024-02-21T14:52:48;3.67;;;1.58;;
86088;SDS011;76699;52.232;5.176;2024-02-21T14:55:14;4.60;;;1.70;;
86088;SDS011;76699;52.232;5.176;2024-02-21T14:57:40;2.83;;;1.20;;